sensor_id;sensor_type;location;lat;lon;timestamp;P1;durP1;ratioP1;P2;durP2;ratioP2
44816;SDS011;30529;53.570;9.964;2023-08-06T00:01:40;3.70;;;1.57;;
44816;SDS011;30529;53.570;9.964;2023-08-06T00:04:06;2.67;;;1.33;;
44816;SDS011;30529;53.570;9.964;2023-08-06T00:06:32;3.47;;;2.10;;
44816;SDS011;30529;53.570;9.964;2023-08-06T00:08:58;2.50;;;1.60;;
44816;SDS011;30529;53.570;9.964;2023-08-06T00:11:24;2.33;;;1.80;;
44816;SDS011;30529;53.570;9.964;2023-08-06T00:13:50;2.57;;;1.67;;
44816;SDS011;30529;53.570;9.964;2023-08-06T00:16:16;2.73;;;1.90;;
44816;SDS011;30529;53.570;9.964;2023-08-06T00:18:42;1.60;;;1.40;;
44816;SDS011;30529;53.570;9.964;2023-08-06T00:21:08;3.93;;;1.70;;
44816;SDS011;30529;53.570;9.964;2023-08-06T00:23:34;2.23;;;1.40;;
44816;SDS011;30529;53.570;9.964;2023-08-06T00:26:00;2.70;;;1.40;;
44816;SDS011;30529;53.570;9.964;2023-08-06T00:28:26;1.67;;;1.20;;
44816;SDS011;30529;53.570;9.964;2023-08-06T00:30:53;1.63;;;1.40;;
44816;SDS011;30529;53.570;9.964;2023-08-06T00:33:20;1.50;;;1.20;;
44816;SDS011;30529;53.570;9.964;2023-08-06T00:35:49;1.43;;;1.33;;
44816;SDS011;30529;53.570;9.964;2023-08-06T00:38:16;1.93;;;1.47;;
44816;SDS011;30529;53.570;9.964;2023-08-06T00:40:42;1.67;;;1.30;;
44816;SDS011;30529;53.570;9.964;2023-08-06T00:43:08;1.30;;;1.20;;
44816;SDS011;30529;53.570;9.964;2023-08-06T00:45:35;1.53;;;1.37;;
44816;SDS011;30529;53.570;9.964;2023-08-06T00:48:02;1.50;;;1.40;;
44816;SDS011;30529;53.570;9.964;2023-08-06T00:50:30;2.33;;;1.70;;
44816;SDS011;30529;53.570;9.964;2023-08-06T00:52:56;1.83;;;1.47;;
44816;SDS011;30529;53.570;9.964;2023-08-06T00:55:23;1.70;;;1.40;;
44816;SDS011;30529;53.570;9.964;2023-08-06T00:57:49;2.93;;;1.60;;
44816;SDS011;30529;53.570;9.964;2023-08-06T01:00:16;1.73;;;1.50;;
44816;SDS011;30529;53.570;9.964;2023-08-06T01:02:43;5.13;;;1.90;;
44816;SDS011;30529;53.570;9.964;2023-08-06T01:05:09;2.33;;;1.90;;
44816;SDS011;30529;53.570;9.964;2023-08-06T01:10:23;2.00;;;1.77;;
44816;SDS011;30529;53.570;9.964;2023-08-06T01:13:18;2.63;;;1.70;;
44816;SDS011;30529;53.570;9.964;2023-08-06T01:16:05;2.67;;;1.77;;
44816;SDS011;30529;53.570;9.964;2023-08-06T01:18:32;2.20;;;2.00;;
44816;SDS011;30529;53.570;9.964;2023-08-06T01:20:58;2.63;;;2.23;;
44816;SDS011;30529;53.570;9.964;2023-08-06T01:23:24;2.07;;;1.87;;
44816;SDS011;30529;53.570;9.964;2023-08-06T01:28:53;2.90;;;2.60;;
44816;SDS011;30529;53.570;9.964;2023-08-06T01:31:38;2.57;;;2.00;;
44816;SDS011;30529;53.570;9.964;2023-08-06T01:34:11;3.67;;;2.23;;
44816;SDS011;30529;53.570;9.964;2023-08-06T01:36:42;2.53;;;2.33;;
44816;SDS011;30529;53.570;9.964;2023-08-06T01:39:09;3.03;;;2.03;;
44816;SDS011;30529;53.570;9.964;2023-08-06T01:41:35;2.40;;;2.20;;
44816;SDS011;30529;53.570;9.964;2023-08-06T01:44:01;2.43;;;2.00;;
44816;SDS011;30529;53.570;9.964;2023-08-06T01:46:27;2.97;;;2.33;;
44816;SDS011;30529;53.570;9.964;2023-08-06T01:48:53;3.20;;;2.17;;
44816;SDS011;30529;53.570;9.964;2023-08-06T01:51:19;4.87;;;2.60;;
44816;SDS011;30529;53.570;9.964;2023-08-06T01:53:45;3.53;;;2.17;;
44816;SDS011;30529;53.570;9.964;2023-08-06T01:56:11;4.77;;;2.67;;
44816;SDS011;30529;53.570;9.964;2023-08-06T01:58:37;3.53;;;2.40;;
44816;SDS011;30529;53.570;9.964;2023-08-06T02:01:03;3.00;;;2.10;;
44816;SDS011;30529;53.570;9.964;2023-08-06T02:03:30;2.30;;;1.97;;
44816;SDS011;30529;53.570;9.964;2023-08-06T02:05:56;2.33;;;2.13;;
44816;SDS011;30529;53.570;9.964;2023-08-06T02:08:22;3.40;;;2.50;;
44816;SDS011;30529;53.570;9.964;2023-08-06T02:10:48;3.80;;;2.70;;
44816;SDS011;30529;53.570;9.964;2023-08-06T02:13:14;4.07;;;2.67;;
44816;SDS011;30529;53.570;9.964;2023-08-06T02:15:44;3.30;;;2.60;;
44816;SDS011;30529;53.570;9.964;2023-08-06T02:18:11;3.43;;;2.43;;
44816;SDS011;30529;53.570;9.964;2023-08-06T02:20:37;3.67;;;2.43;;
44816;SDS011;30529;53.570;9.964;2023-08-06T02:23:03;4.03;;;2.77;;
44816;SDS011;30529;53.570;9.964;2023-08-06T02:25:29;3.77;;;2.70;;
44816;SDS011;30529;53.570;9.964;2023-08-06T02:27:55;5.07;;;2.60;;
44816;SDS011;30529;53.570;9.964;2023-08-06T02:30:21;3.57;;;2.30;;
44816;SDS011;30529;53.570;9.964;2023-08-06T02:32:47;3.50;;;2.90;;
44816;SDS011;30529;53.570;9.964;2023-08-06T02:35:13;3.80;;;2.70;;
44816;SDS011;30529;53.570;9.964;2023-08-06T02:37:39;4.00;;;2.77;;
44816;SDS011;30529;53.570;9.964;2023-08-06T02:40:05;3.37;;;2.90;;
44816;SDS011;30529;53.570;9.964;2023-08-06T02:42:32;3.47;;;2.77;;
44816;SDS011;30529;53.570;9.964;2023-08-06T02:44:58;5.13;;;3.00;;
44816;SDS011;30529;53.570;9.964;2023-08-06T02:47:24;4.20;;;2.90;;
44816;SDS011;30529;53.570;9.964;2023-08-06T02:49:50;3.67;;;3.23;;
44816;SDS011;30529;53.570;9.964;2023-08-06T02:52:16;3.47;;;2.90;;
44816;SDS011;30529;53.570;9.964;2023-08-06T02:54:42;3.30;;;2.90;;
44816;SDS011;30529;53.570;9.964;2023-08-06T02:57:08;3.13;;;2.83;;
44816;SDS011;30529;53.570;9.964;2023-08-06T02:59:34;3.03;;;2.73;;
44816;SDS011;30529;53.570;9.964;2023-08-06T03:02:00;4.73;;;3.20;;
44816;SDS011;30529;53.570;9.964;2023-08-06T03:04:26;4.93;;;2.93;;
44816;SDS011;30529;53.570;9.964;2023-08-06T03:06:52;2.90;;;2.60;;
44816;SDS011;30529;53.570;9.964;2023-08-06T03:09:18;3.10;;;2.73;;
44816;SDS011;30529;53.570;9.964;2023-08-06T03:11:44;5.50;;;3.20;;
44816;SDS011;30529;53.570;9.964;2023-08-06T03:14:10;4.83;;;2.80;;
44816;SDS011;30529;53.570;9.964;2023-08-06T03:16:36;4.33;;;3.13;;
44816;SDS011;30529;53.570;9.964;2023-08-06T03:19:02;3.50;;;2.57;;
44816;SDS011;30529;53.570;9.964;2023-08-06T03:21:28;3.30;;;2.90;;
44816;SDS011;30529;53.570;9.964;2023-08-06T03:23:54;3.20;;;2.83;;
44816;SDS011;30529;53.570;9.964;2023-08-06T03:26:21;3.17;;;2.67;;
44816;SDS011;30529;53.570;9.964;2023-08-06T03:28:46;3.77;;;2.80;;
44816;SDS011;30529;53.570;9.964;2023-08-06T03:31:13;5.40;;;3.07;;
44816;SDS011;30529;53.570;9.964;2023-08-06T03:33:38;4.47;;;3.10;;
44816;SDS011;30529;53.570;9.964;2023-08-06T03:36:05;4.93;;;2.80;;
44816;SDS011;30529;53.570;9.964;2023-08-06T03:38:31;4.07;;;3.03;;
44816;SDS011;30529;53.570;9.964;2023-08-06T03:40:57;4.20;;;2.87;;
44816;SDS011;30529;53.570;9.964;2023-08-06T03:43:23;3.60;;;2.77;;
44816;SDS011;30529;53.570;9.964;2023-08-06T03:45:49;3.67;;;3.07;;
44816;SDS011;30529;53.570;9.964;2023-08-06T03:48:15;4.17;;;2.97;;
44816;SDS011;30529;53.570;9.964;2023-08-06T03:50:41;4.20;;;2.90;;
44816;SDS011;30529;53.570;9.964;2023-08-06T03:53:07;6.13;;;3.30;;
44816;SDS011;30529;53.570;9.964;2023-08-06T03:55:33;5.80;;;2.90;;
44816;SDS011;30529;53.570;9.964;2023-08-06T03:57:59;3.93;;;3.07;;
44816;SDS011;30529;53.570;9.964;2023-08-06T04:00:25;3.53;;;2.53;;
44816;SDS011;30529;53.570;9.964;2023-08-06T04:02:51;5.73;;;3.17;;
44816;SDS011;30529;53.570;9.964;2023-08-06T04:05:17;3.50;;;3.00;;
44816;SDS011;30529;53.570;9.964;2023-08-06T04:07:43;4.77;;;3.13;;
44816;SDS011;30529;53.570;9.964;2023-08-06T04:10:09;4.73;;;3.73;;
44816;SDS011;30529;53.570;9.964;2023-08-06T04:12:35;3.60;;;2.90;;
44816;SDS011;30529;53.570;9.964;2023-08-06T04:15:03;6.87;;;3.13;;
44816;SDS011;30529;53.570;9.964;2023-08-06T04:17:30;5.37;;;2.93;;
44816;SDS011;30529;53.570;9.964;2023-08-06T04:19:55;4.03;;;2.90;;
44816;SDS011;30529;53.570;9.964;2023-08-06T04:22:24;3.87;;;2.90;;
44816;SDS011;30529;53.570;9.964;2023-08-06T04:24:50;3.20;;;2.70;;
44816;SDS011;30529;53.570;9.964;2023-08-06T04:27:17;5.87;;;2.73;;
44816;SDS011;30529;53.570;9.964;2023-08-06T04:29:44;3.33;;;2.77;;
44816;SDS011;30529;53.570;9.964;2023-08-06T04:32:10;7.30;;;2.93;;
44816;SDS011;30529;53.570;9.964;2023-08-06T04:34:36;4.50;;;3.00;;
44816;SDS011;30529;53.570;9.964;2023-08-06T04:37:03;4.57;;;3.10;;
44816;SDS011;30529;53.570;9.964;2023-08-06T04:39:30;7.10;;;3.40;;
44816;SDS011;30529;53.570;9.964;2023-08-06T04:41:56;5.17;;;3.13;;
44816;SDS011;30529;53.570;9.964;2023-08-06T04:44:25;4.47;;;3.13;;
44816;SDS011;30529;53.570;9.964;2023-08-06T04:46:51;6.33;;;3.07;;
44816;SDS011;30529;53.570;9.964;2023-08-06T04:49:18;7.40;;;2.87;;
44816;SDS011;30529;53.570;9.964;2023-08-06T04:51:47;4.30;;;3.07;;
44816;SDS011;30529;53.570;9.964;2023-08-06T04:54:13;5.00;;;2.70;;
44816;SDS011;30529;53.570;9.964;2023-08-06T04:56:39;7.00;;;3.10;;
44816;SDS011;30529;53.570;9.964;2023-08-06T04:59:05;7.13;;;3.20;;
44816;SDS011;30529;53.570;9.964;2023-08-06T05:01:32;7.00;;;3.70;;
44816;SDS011;30529;53.570;9.964;2023-08-06T05:03:58;5.03;;;3.00;;
44816;SDS011;30529;53.570;9.964;2023-08-06T05:06:24;4.60;;;2.90;;
44816;SDS011;30529;53.570;9.964;2023-08-06T05:08:49;4.50;;;3.17;;
44816;SDS011;30529;53.570;9.964;2023-08-06T05:11:15;6.23;;;3.63;;
44816;SDS011;30529;53.570;9.964;2023-08-06T05:13:41;3.00;;;2.60;;
44816;SDS011;30529;53.570;9.964;2023-08-06T05:16:07;4.90;;;3.10;;
44816;SDS011;30529;53.570;9.964;2023-08-06T05:18:34;5.10;;;3.47;;
44816;SDS011;30529;53.570;9.964;2023-08-06T05:21:00;7.80;;;3.40;;
44816;SDS011;30529;53.570;9.964;2023-08-06T05:23:26;5.00;;;2.80;;
44816;SDS011;30529;53.570;9.964;2023-08-06T05:25:52;6.63;;;3.40;;
44816;SDS011;30529;53.570;9.964;2023-08-06T05:28:18;5.70;;;3.43;;
44816;SDS011;30529;53.570;9.964;2023-08-06T05:30:44;7.63;;;3.43;;
44816;SDS011;30529;53.570;9.964;2023-08-06T05:33:10;6.20;;;3.47;;
44816;SDS011;30529;53.570;9.964;2023-08-06T05:35:36;4.97;;;2.97;;
44816;SDS011;30529;53.570;9.964;2023-08-06T05:38:02;3.20;;;2.67;;
44816;SDS011;30529;53.570;9.964;2023-08-06T05:40:28;5.50;;;3.17;;
44816;SDS011;30529;53.570;9.964;2023-08-06T05:42:54;4.30;;;2.93;;
44816;SDS011;30529;53.570;9.964;2023-08-06T05:45:20;4.83;;;3.20;;
44816;SDS011;30529;53.570;9.964;2023-08-06T05:47:49;7.60;;;4.33;;
44816;SDS011;30529;53.570;9.964;2023-08-06T05:50:15;5.20;;;4.00;;
44816;SDS011;30529;53.570;9.964;2023-08-06T05:52:41;4.33;;;3.50;;
44816;SDS011;30529;53.570;9.964;2023-08-06T05:55:07;6.27;;;3.47;;
44816;SDS011;30529;53.570;9.964;2023-08-06T05:57:34;8.07;;;3.33;;
44816;SDS011;30529;53.570;9.964;2023-08-06T06:00:00;5.00;;;3.20;;
44816;SDS011;30529;53.570;9.964;2023-08-06T06:02:26;4.37;;;2.97;;
44816;SDS011;30529;53.570;9.964;2023-08-06T06:04:53;4.60;;;3.20;;
44816;SDS011;30529;53.570;9.964;2023-08-06T06:07:19;4.60;;;3.23;;
44816;SDS011;30529;53.570;9.964;2023-08-06T06:09:45;6.80;;;3.43;;
44816;SDS011;30529;53.570;9.964;2023-08-06T06:12:11;11.60;;;4.00;;
44816;SDS011;30529;53.570;9.964;2023-08-06T06:14:37;6.63;;;3.23;;
44816;SDS011;30529;53.570;9.964;2023-08-06T06:17:03;6.27;;;3.60;;
44816;SDS011;30529;53.570;9.964;2023-08-06T06:19:29;5.27;;;3.77;;
44816;SDS011;30529;53.570;9.964;2023-08-06T06:21:55;4.50;;;3.20;;
44816;SDS011;30529;53.570;9.964;2023-08-06T06:24:23;5.77;;;4.03;;
44816;SDS011;30529;53.570;9.964;2023-08-06T06:26:49;5.47;;;3.77;;
44816;SDS011;30529;53.570;9.964;2023-08-06T06:29:15;7.07;;;3.60;;
44816;SDS011;30529;53.570;9.964;2023-08-06T06:31:41;5.87;;;3.60;;
44816;SDS011;30529;53.570;9.964;2023-08-06T06:34:07;7.87;;;3.53;;
44816;SDS011;30529;53.570;9.964;2023-08-06T06:36:33;5.13;;;3.77;;
44816;SDS011;30529;53.570;9.964;2023-08-06T06:38:59;8.00;;;3.97;;
44816;SDS011;30529;53.570;9.964;2023-08-06T06:41:25;6.50;;;4.27;;
44816;SDS011;30529;53.570;9.964;2023-08-06T06:43:51;8.10;;;3.60;;
44816;SDS011;30529;53.570;9.964;2023-08-06T06:46:17;8.47;;;4.33;;
44816;SDS011;30529;53.570;9.964;2023-08-06T06:48:44;4.87;;;3.67;;
44816;SDS011;30529;53.570;9.964;2023-08-06T06:51:09;4.50;;;3.33;;
44816;SDS011;30529;53.570;9.964;2023-08-06T06:53:36;8.70;;;4.30;;
44816;SDS011;30529;53.570;9.964;2023-08-06T06:56:02;5.37;;;3.50;;
44816;SDS011;30529;53.570;9.964;2023-08-06T06:58:30;6.50;;;4.10;;
44816;SDS011;30529;53.570;9.964;2023-08-06T07:00:56;4.80;;;3.67;;
44816;SDS011;30529;53.570;9.964;2023-08-06T07:03:22;4.47;;;3.60;;
44816;SDS011;30529;53.570;9.964;2023-08-06T07:05:49;6.80;;;3.50;;
44816;SDS011;30529;53.570;9.964;2023-08-06T07:08:15;8.37;;;3.90;;
44816;SDS011;30529;53.570;9.964;2023-08-06T07:10:42;6.10;;;4.00;;
44816;SDS011;30529;53.570;9.964;2023-08-06T07:13:08;5.40;;;3.53;;
44816;SDS011;30529;53.570;9.964;2023-08-06T07:15:35;9.37;;;3.63;;
44816;SDS011;30529;53.570;9.964;2023-08-06T07:18:01;7.33;;;4.23;;
44816;SDS011;30529;53.570;9.964;2023-08-06T07:20:27;5.80;;;4.00;;
44816;SDS011;30529;53.570;9.964;2023-08-06T07:22:57;6.37;;;4.20;;
44816;SDS011;30529;53.570;9.964;2023-08-06T07:25:24;5.10;;;3.67;;
44816;SDS011;30529;53.570;9.964;2023-08-06T07:27:50;7.00;;;3.80;;
44816;SDS011;30529;53.570;9.964;2023-08-06T07:30:16;4.60;;;3.50;;
44816;SDS011;30529;53.570;9.964;2023-08-06T07:32:42;5.27;;;3.50;;
44816;SDS011;30529;53.570;9.964;2023-08-06T07:35:08;9.10;;;4.47;;
44816;SDS011;30529;53.570;9.964;2023-08-06T07:37:38;7.93;;;3.67;;
44816;SDS011;30529;53.570;9.964;2023-08-06T07:40:04;6.60;;;4.57;;
44816;SDS011;30529;53.570;9.964;2023-08-06T07:42:31;6.20;;;3.93;;
44816;SDS011;30529;53.570;9.964;2023-08-06T07:44:57;5.23;;;3.57;;
44816;SDS011;30529;53.570;9.964;2023-08-06T07:47:24;6.63;;;3.40;;
44816;SDS011;30529;53.570;9.964;2023-08-06T07:49:50;5.77;;;3.43;;
44816;SDS011;30529;53.570;9.964;2023-08-06T07:52:16;7.20;;;3.67;;
44816;SDS011;30529;53.570;9.964;2023-08-06T07:54:42;6.37;;;3.77;;
44816;SDS011;30529;53.570;9.964;2023-08-06T07:57:08;7.80;;;3.90;;
44816;SDS011;30529;53.570;9.964;2023-08-06T07:59:35;10.13;;;5.07;;
44816;SDS011;30529;53.570;9.964;2023-08-06T08:02:01;7.27;;;4.20;;
44816;SDS011;30529;53.570;9.964;2023-08-06T08:04:27;8.53;;;4.10;;
44816;SDS011;30529;53.570;9.964;2023-08-06T08:06:53;9.27;;;4.33;;
44816;SDS011;30529;53.570;9.964;2023-08-06T08:09:20;5.47;;;4.47;;
44816;SDS011;30529;53.570;9.964;2023-08-06T08:11:45;6.77;;;3.83;;
44816;SDS011;30529;53.570;9.964;2023-08-06T08:14:12;7.03;;;3.97;;
44816;SDS011;30529;53.570;9.964;2023-08-06T08:16:38;7.90;;;5.10;;
44816;SDS011;30529;53.570;9.964;2023-08-06T08:19:04;7.97;;;5.03;;
44816;SDS011;30529;53.570;9.964;2023-08-06T08:21:30;9.63;;;5.77;;
44816;SDS011;30529;53.570;9.964;2023-08-06T08:23:56;8.23;;;5.43;;
44816;SDS011;30529;53.570;9.964;2023-08-06T08:26:24;7.90;;;4.30;;
44816;SDS011;30529;53.570;9.964;2023-08-06T08:28:51;8.03;;;4.57;;
44816;SDS011;30529;53.570;9.964;2023-08-06T08:31:17;5.03;;;4.20;;
44816;SDS011;30529;53.570;9.964;2023-08-06T08:33:43;6.73;;;4.50;;
44816;SDS011;30529;53.570;9.964;2023-08-06T08:36:09;7.60;;;4.30;;
44816;SDS011;30529;53.570;9.964;2023-08-06T08:38:35;7.27;;;4.60;;
44816;SDS011;30529;53.570;9.964;2023-08-06T08:41:01;5.63;;;3.80;;
44816;SDS011;30529;53.570;9.964;2023-08-06T08:43:27;8.23;;;4.53;;
44816;SDS011;30529;53.570;9.964;2023-08-06T08:45:54;7.37;;;4.80;;
44816;SDS011;30529;53.570;9.964;2023-08-06T08:48:24;6.03;;;3.93;;
44816;SDS011;30529;53.570;9.964;2023-08-06T08:50:52;6.90;;;3.87;;
44816;SDS011;30529;53.570;9.964;2023-08-06T08:53:19;7.00;;;4.20;;
44816;SDS011;30529;53.570;9.964;2023-08-06T08:55:48;9.50;;;4.07;;
44816;SDS011;30529;53.570;9.964;2023-08-06T08:58:15;4.43;;;3.70;;
44816;SDS011;30529;53.570;9.964;2023-08-06T09:00:42;18.37;;;14.03;;
44816;SDS011;30529;53.570;9.964;2023-08-06T09:03:09;6.57;;;4.40;;
44816;SDS011;30529;53.570;9.964;2023-08-06T09:05:36;8.00;;;4.70;;
44816;SDS011;30529;53.570;9.964;2023-08-06T09:08:07;6.40;;;4.40;;
44816;SDS011;30529;53.570;9.964;2023-08-06T09:10:36;8.93;;;4.20;;
44816;SDS011;30529;53.570;9.964;2023-08-06T09:13:02;5.57;;;3.83;;
44816;SDS011;30529;53.570;9.964;2023-08-06T09:15:29;6.00;;;4.00;;
44816;SDS011;30529;53.570;9.964;2023-08-06T09:17:56;6.53;;;3.90;;
44816;SDS011;30529;53.570;9.964;2023-08-06T09:20:22;6.90;;;4.10;;
44816;SDS011;30529;53.570;9.964;2023-08-06T09:22:48;4.13;;;3.57;;
44816;SDS011;30529;53.570;9.964;2023-08-06T09:25:24;7.53;;;4.87;;
44816;SDS011;30529;53.570;9.964;2023-08-06T09:27:51;6.07;;;4.00;;
44816;SDS011;30529;53.570;9.964;2023-08-06T09:30:30;6.30;;;4.00;;
44816;SDS011;30529;53.570;9.964;2023-08-06T09:32:57;11.00;;;4.07;;
44816;SDS011;30529;53.570;9.964;2023-08-06T09:35:24;5.77;;;4.00;;
44816;SDS011;30529;53.570;9.964;2023-08-06T09:37:53;4.97;;;3.80;;
44816;SDS011;30529;53.570;9.964;2023-08-06T09:40:29;6.23;;;4.33;;
44816;SDS011;30529;53.570;9.964;2023-08-06T09:42:56;5.70;;;3.93;;
44816;SDS011;30529;53.570;9.964;2023-08-06T09:45:23;7.50;;;4.00;;
44816;SDS011;30529;53.570;9.964;2023-08-06T09:47:56;6.87;;;3.90;;
44816;SDS011;30529;53.570;9.964;2023-08-06T09:50:22;6.27;;;4.50;;
44816;SDS011;30529;53.570;9.964;2023-08-06T09:52:51;5.13;;;4.13;;
44816;SDS011;30529;53.570;9.964;2023-08-06T09:55:26;8.67;;;4.70;;
44816;SDS011;30529;53.570;9.964;2023-08-06T09:57:52;7.53;;;3.90;;
44816;SDS011;30529;53.570;9.964;2023-08-06T10:00:20;5.00;;;4.10;;
44816;SDS011;30529;53.570;9.964;2023-08-06T10:02:47;6.97;;;4.23;;
44816;SDS011;30529;53.570;9.964;2023-08-06T10:05:15;7.00;;;3.97;;
44816;SDS011;30529;53.570;9.964;2023-08-06T10:07:43;7.63;;;4.07;;
44816;SDS011;30529;53.570;9.964;2023-08-06T10:10:10;5.93;;;4.20;;
44816;SDS011;30529;53.570;9.964;2023-08-06T10:12:40;4.50;;;3.60;;
44816;SDS011;30529;53.570;9.964;2023-08-06T10:15:16;7.83;;;4.40;;
44816;SDS011;30529;53.570;9.964;2023-08-06T10:17:53;8.57;;;3.87;;
44816;SDS011;30529;53.570;9.964;2023-08-06T10:20:22;4.70;;;3.70;;
44816;SDS011;30529;53.570;9.964;2023-08-06T10:22:59;6.47;;;4.20;;
44816;SDS011;30529;53.570;9.964;2023-08-06T10:25:30;6.13;;;4.13;;
44816;SDS011;30529;53.570;9.964;2023-08-06T10:27:58;5.43;;;3.93;;
44816;SDS011;30529;53.570;9.964;2023-08-06T10:30:31;5.03;;;4.53;;
44816;SDS011;30529;53.570;9.964;2023-08-06T10:32:59;4.97;;;3.50;;
44816;SDS011;30529;53.570;9.964;2023-08-06T10:38:20;7.27;;;4.07;;
44816;SDS011;30529;53.570;9.964;2023-08-06T10:41:00;5.37;;;3.97;;
44816;SDS011;30529;53.570;9.964;2023-08-06T10:43:36;11.10;;;5.27;;
44816;SDS011;30529;53.570;9.964;2023-08-06T10:46:10;4.57;;;4.03;;
44816;SDS011;30529;53.570;9.964;2023-08-06T10:48:40;6.80;;;4.17;;
44816;SDS011;30529;53.570;9.964;2023-08-06T10:51:08;7.27;;;4.30;;
44816;SDS011;30529;53.570;9.964;2023-08-06T10:53:35;8.23;;;3.93;;
44816;SDS011;30529;53.570;9.964;2023-08-06T10:56:02;5.53;;;3.57;;
44816;SDS011;30529;53.570;9.964;2023-08-06T10:58:40;6.37;;;4.60;;
44816;SDS011;30529;53.570;9.964;2023-08-06T11:01:06;5.47;;;3.70;;
44816;SDS011;30529;53.570;9.964;2023-08-06T11:03:33;6.07;;;3.87;;
44816;SDS011;30529;53.570;9.964;2023-08-06T11:06:03;4.80;;;3.50;;
44816;SDS011;30529;53.570;9.964;2023-08-06T11:08:33;4.20;;;3.80;;
44816;SDS011;30529;53.570;9.964;2023-08-06T11:11:10;5.47;;;3.60;;
44816;SDS011;30529;53.570;9.964;2023-08-06T11:13:42;4.30;;;3.40;;
44816;SDS011;30529;53.570;9.964;2023-08-06T11:16:10;6.83;;;3.70;;
44816;SDS011;30529;53.570;9.964;2023-08-06T11:18:36;4.03;;;3.60;;
44816;SDS011;30529;53.570;9.964;2023-08-06T11:21:02;6.13;;;3.93;;
44816;SDS011;30529;53.570;9.964;2023-08-06T11:23:28;5.73;;;3.70;;
44816;SDS011;30529;53.570;9.964;2023-08-06T11:25:55;5.83;;;4.10;;
44816;SDS011;30529;53.570;9.964;2023-08-06T11:28:22;5.17;;;4.10;;
44816;SDS011;30529;53.570;9.964;2023-08-06T11:30:49;6.03;;;3.93;;
44816;SDS011;30529;53.570;9.964;2023-08-06T11:33:21;5.23;;;3.60;;
44816;SDS011;30529;53.570;9.964;2023-08-06T11:35:48;5.97;;;3.70;;
44816;SDS011;30529;53.570;9.964;2023-08-06T11:38:15;5.43;;;3.87;;
44816;SDS011;30529;53.570;9.964;2023-08-06T11:40:43;7.60;;;3.90;;
44816;SDS011;30529;53.570;9.964;2023-08-06T11:43:11;4.40;;;3.20;;
44816;SDS011;30529;53.570;9.964;2023-08-06T11:45:38;5.33;;;3.80;;
44816;SDS011;30529;53.570;9.964;2023-08-06T11:48:04;5.73;;;3.80;;
44816;SDS011;30529;53.570;9.964;2023-08-06T11:50:31;4.57;;;3.67;;
44816;SDS011;30529;53.570;9.964;2023-08-06T11:52:59;6.37;;;4.03;;
44816;SDS011;30529;53.570;9.964;2023-08-06T11:55:27;5.47;;;3.83;;
44816;SDS011;30529;53.570;9.964;2023-08-06T11:57:54;6.30;;;3.87;;
44816;SDS011;30529;53.570;9.964;2023-08-06T12:00:22;6.40;;;4.80;;
44816;SDS011;30529;53.570;9.964;2023-08-06T12:02:52;7.03;;;4.33;;
44816;SDS011;30529;53.570;9.964;2023-08-06T12:05:21;9.33;;;4.47;;
44816;SDS011;30529;53.570;9.964;2023-08-06T12:07:52;4.90;;;4.10;;
44816;SDS011;30529;53.570;9.964;2023-08-06T12:10:21;12.20;;;6.37;;
44816;SDS011;30529;53.570;9.964;2023-08-06T12:12:49;5.67;;;4.03;;
44816;SDS011;30529;53.570;9.964;2023-08-06T12:15:15;6.83;;;3.80;;
44816;SDS011;30529;53.570;9.964;2023-08-06T12:17:45;4.43;;;3.60;;
44816;SDS011;30529;53.570;9.964;2023-08-06T12:20:11;5.23;;;4.00;;
44816;SDS011;30529;53.570;9.964;2023-08-06T12:22:37;4.80;;;3.80;;
44816;SDS011;30529;53.570;9.964;2023-08-06T12:25:05;5.50;;;4.10;;
44816;SDS011;30529;53.570;9.964;2023-08-06T12:27:37;5.93;;;3.60;;
44816;SDS011;30529;53.570;9.964;2023-08-06T12:30:05;4.93;;;4.00;;
44816;SDS011;30529;53.570;9.964;2023-08-06T12:32:31;4.17;;;3.73;;
44816;SDS011;30529;53.570;9.964;2023-08-06T12:34:58;7.70;;;3.70;;
44816;SDS011;30529;53.570;9.964;2023-08-06T12:37:25;7.30;;;5.83;;
44816;SDS011;30529;53.570;9.964;2023-08-06T12:39:52;6.00;;;4.57;;
44816;SDS011;30529;53.570;9.964;2023-08-06T12:42:18;7.17;;;3.77;;
44816;SDS011;30529;53.570;9.964;2023-08-06T12:44:44;3.67;;;3.10;;
44816;SDS011;30529;53.570;9.964;2023-08-06T12:47:10;7.23;;;4.07;;
44816;SDS011;30529;53.570;9.964;2023-08-06T12:49:36;4.50;;;3.90;;
44816;SDS011;30529;53.570;9.964;2023-08-06T12:52:03;5.70;;;4.23;;
44816;SDS011;30529;53.570;9.964;2023-08-06T12:54:31;4.90;;;3.90;;
44816;SDS011;30529;53.570;9.964;2023-08-06T12:57:03;7.40;;;4.60;;
44816;SDS011;30529;53.570;9.964;2023-08-06T12:59:30;5.23;;;3.40;;
44816;SDS011;30529;53.570;9.964;2023-08-06T13:01:56;9.70;;;3.67;;
44816;SDS011;30529;53.570;9.964;2023-08-06T13:04:22;5.40;;;3.20;;
44816;SDS011;30529;53.570;9.964;2023-08-06T13:06:48;7.13;;;3.10;;
44816;SDS011;30529;53.570;9.964;2023-08-06T13:09:15;5.03;;;3.63;;
44816;SDS011;30529;53.570;9.964;2023-08-06T13:11:41;4.63;;;3.10;;
44816;SDS011;30529;53.570;9.964;2023-08-06T13:14:09;6.47;;;3.60;;
44816;SDS011;30529;53.570;9.964;2023-08-06T13:16:37;5.90;;;3.13;;
44816;SDS011;30529;53.570;9.964;2023-08-06T13:19:04;5.67;;;3.83;;
44816;SDS011;30529;53.570;9.964;2023-08-06T13:21:35;4.13;;;3.50;;
44816;SDS011;30529;53.570;9.964;2023-08-06T13:24:21;6.27;;;3.30;;
44816;SDS011;30529;53.570;9.964;2023-08-06T13:26:47;4.27;;;2.80;;
44816;SDS011;30529;53.570;9.964;2023-08-06T13:29:13;7.50;;;3.80;;
44816;SDS011;30529;53.570;9.964;2023-08-06T13:31:39;6.10;;;3.50;;
44816;SDS011;30529;53.570;9.964;2023-08-06T13:34:05;8.07;;;3.77;;
44816;SDS011;30529;53.570;9.964;2023-08-06T13:36:31;6.47;;;3.63;;
44816;SDS011;30529;53.570;9.964;2023-08-06T13:38:57;5.67;;;3.80;;
44816;SDS011;30529;53.570;9.964;2023-08-06T13:41:23;3.83;;;3.20;;
44816;SDS011;30529;53.570;9.964;2023-08-06T13:43:49;5.30;;;3.30;;
44816;SDS011;30529;53.570;9.964;2023-08-06T13:46:17;6.00;;;3.60;;
44816;SDS011;30529;53.570;9.964;2023-08-06T13:48:45;8.00;;;3.53;;
44816;SDS011;30529;53.570;9.964;2023-08-06T13:51:13;5.07;;;2.83;;
44816;SDS011;30529;53.570;9.964;2023-08-06T13:53:40;5.20;;;2.80;;
44816;SDS011;30529;53.570;9.964;2023-08-06T13:56:06;8.53;;;3.97;;
44816;SDS011;30529;53.570;9.964;2023-08-06T13:58:35;4.93;;;3.03;;
44816;SDS011;30529;53.570;9.964;2023-08-06T14:01:01;4.13;;;2.93;;
44816;SDS011;30529;53.570;9.964;2023-08-06T14:03:27;4.93;;;3.10;;
44816;SDS011;30529;53.570;9.964;2023-08-06T14:05:53;5.27;;;2.50;;
44816;SDS011;30529;53.570;9.964;2023-08-06T14:08:22;3.47;;;1.83;;
44816;SDS011;30529;53.570;9.964;2023-08-06T14:10:49;4.70;;;2.30;;
44816;SDS011;30529;53.570;9.964;2023-08-06T14:13:16;5.90;;;2.60;;
44816;SDS011;30529;53.570;9.964;2023-08-06T14:15:42;4.07;;;2.27;;
44816;SDS011;30529;53.570;9.964;2023-08-06T14:18:15;5.53;;;2.17;;
44816;SDS011;30529;53.570;9.964;2023-08-06T14:20:42;2.47;;;2.10;;
44816;SDS011;30529;53.570;9.964;2023-08-06T14:23:08;4.47;;;2.20;;
44816;SDS011;30529;53.570;9.964;2023-08-06T14:25:35;4.77;;;1.93;;
44816;SDS011;30529;53.570;9.964;2023-08-06T14:28:01;3.73;;;1.90;;
44816;SDS011;30529;53.570;9.964;2023-08-06T14:30:27;3.50;;;2.00;;
44816;SDS011;30529;53.570;9.964;2023-08-06T14:32:53;3.80;;;1.90;;
44816;SDS011;30529;53.570;9.964;2023-08-06T14:35:19;2.13;;;1.53;;
44816;SDS011;30529;53.570;9.964;2023-08-06T14:37:45;2.50;;;1.90;;
44816;SDS011;30529;53.570;9.964;2023-08-06T14:40:11;3.40;;;1.97;;
44816;SDS011;30529;53.570;9.964;2023-08-06T14:42:37;2.80;;;2.10;;
44816;SDS011;30529;53.570;9.964;2023-08-06T14:45:03;3.47;;;2.23;;
44816;SDS011;30529;53.570;9.964;2023-08-06T14:47:30;3.77;;;1.90;;
44816;SDS011;30529;53.570;9.964;2023-08-06T14:49:56;3.80;;;2.03;;
44816;SDS011;30529;53.570;9.964;2023-08-06T14:52:22;3.83;;;2.40;;
44816;SDS011;30529;53.570;9.964;2023-08-06T14:54:48;2.87;;;1.83;;
44816;SDS011;30529;53.570;9.964;2023-08-06T14:57:17;4.27;;;2.00;;